Terminal Aerodrome Forecast
Issued by NWS

Home | Current Version | Previous Version | Text Only | Print | Product List | Glossary On
Versions: 1 2 3 4 5 6 7 8 9 10 11 12 13 14 15 16 17 18 19 20 21 22 23 24 25 26 27 28 29 30 31 32 33
000
FTAK31 PANC 012326
TAFADU
TAF
PADU 012326Z 0200/0224 05011KT P6SM VCSH OVC035
     FM020600 05016G25KT P6SM VCSH BKN025 OVC035
     FM021600 03015G21KT P6SM SCT030 BKN040=

USA.gov is the U.S. government's official web portal to all federal, state and local government web resources and services.